Time;durP1;ratioP1;P1;durP2;ratioP2;P2;SDS_P1;SDS_P2;PMS_P1;PMS_P2;Temp;Humidity;BMP_temperature;BMP_pressure;BME280_temperature;BME280_humidity;BME280_pressure;Samples;Min_cycle;Max_cycle;Signal;HPM_P1;HPM_P2
2023/05/08 00:00:30;;;;;;;1.00;0.97;;;;;;;8.76;70.85;100104.19;5113185;28;20435;-61
2023/05/08 00:02:59;;;;;;;0.52;0.52;;;;;;;8.82;70.68;100108.53;5114212;28;20287;-61
2023/05/08 00:05:28;;;;;;;0.60;0.60;;;;;;;8.81;70.85;100102.56;5114190;28;20518;-61
2023/05/08 00:08:00;;;;;;;0.60;0.60;;;;;;;8.84;70.30;100107.72;5114166;28;20287;-62
2023/05/08 00:10:30;;;;;;;0.68;0.68;;;;;;;8.88;70.57;100112.00;5113660;28;20056;-61
2023/05/08 00:12:59;;;;;;;0.70;0.63;;;;;;;8.82;70.07;100114.47;5114089;28;20048;-61
2023/05/08 00:15:28;;;;;;;0.68;0.68;;;;;;;8.87;70.54;100112.00;5114299;28;20043;-61
2023/05/08 00:17:58;;;;;;;0.93;0.88;;;;;;;8.85;70.34;100114.53;5114056;28;20035;-61
2023/05/08 00:20:26;;;;;;;;;;;;;;;8.82;70.76;100116.16;5114667;28;20565;-61
2023/05/08 00:22:56;;;;;;;0.70;0.70;;;;;;;8.73;70.10;100124.53;5113953;28;19920;-61
2023/05/08 00:25:27;;;;;;;0.50;0.50;;;;;;;8.70;70.42;100122.81;5113910;28;20044;-61
2023/05/08 00:27:56;;;;;;;0.40;0.40;;;;;;;8.65;71.39;100126.97;5114006;28;20048;-61
2023/05/08 00:30:25;;;;;;;0.90;0.55;;;;;;;8.75;71.10;100122.88;5113856;28;20131;-61
2023/05/08 00:32:54;;;;;;;0.63;0.63;;;;;;;8.75;70.92;100122.88;5117151;28;20027;-61
2023/05/08 00:35:23;;;;;;;2.90;1.53;;;;;;;8.76;70.95;100122.00;5118252;28;20311;-61
2023/05/08 00:37:52;;;;;;;0.60;0.60;;;;;;;8.64;70.64;100114.22;5117958;28;20073;-61
2023/05/08 00:40:21;;;;;;;0.45;0.45;;;;;;;8.68;70.18;100121.06;5116739;28;20035;-61
2023/05/08 00:42:51;;;;;;;1.05;0.85;;;;;;;8.69;71.62;100127.84;5116547;28;20043;-61
2023/05/08 00:45:20;;;;;;;0.60;0.60;;;;;;;8.78;70.67;100126.28;5116630;28;20514;-61
2023/05/08 00:47:50;;;;;;;1.17;1.08;;;;;;;8.81;70.95;100125.47;5117675;27;20524;-61
2023/05/08 00:50:20;;;;;;;1.10;1.00;;;;;;;8.86;70.45;100126.41;5116540;28;20043;-61
2023/05/08 00:52:50;;;;;;;0.90;0.85;;;;;;;8.86;70.72;100128.94;5117666;28;20408;-61
2023/05/08 00:55:20;;;;;;;0.85;0.70;;;;;;;8.77;70.31;100131.38;5116689;28;20457;-60
2023/05/08 00:57:52;;;;;;;2.05;1.27;;;;;;;8.65;71.09;100136.28;5117520;28;20047;-60
2023/05/08 01:00:22;;;;;;;0.45;0.45;;;;;;;8.64;70.73;100132.88;5117930;28;20078;-60
2023/05/08 01:02:51;;;;;;;2.40;2.10;;;;;;;8.64;71.74;100129.47;5116253;28;20039;-61
2023/05/08 01:05:20;;;;;;;0.47;0.47;;;;;;;8.68;71.40;100131.25;5117367;28;20097;-61
2023/05/08 01:07:49;;;;;;;0.60;0.60;;;;;;;8.68;70.64;100127.03;5116455;28;20397;-61
2023/05/08 01:10:18;;;;;;;0.40;0.40;;;;;;;8.61;70.98;100134.53;5115922;28;20043;-61
2023/05/08 01:13:05;;;;;;;0.45;0.45;;;;;;;8.59;70.40;100141.31;5117239;28;20048;-61
2023/05/08 01:15:47;;;;;;;0.57;0.57;;;;;;;8.53;71.27;100124.25;5117219;27;20063;-61
2023/05/08 01:18:21;;;;;;;0.40;0.40;;;;;;;8.53;71.59;100131.03;5115999;28;20561;-61
2023/05/08 01:20:57;;;;;;;0.80;0.68;;;;;;;8.56;71.64;100129.41;5117415;28;20505;-61
2023/05/08 01:23:49;;;;;;;0.63;0.63;;;;;;;8.66;71.52;100132.94;5116233;28;20445;-61
2023/05/08 01:26:44;;;;;;;0.75;0.75;;;;;;;8.80;71.40;100141.59;5117021;28;20040;-61
2023/05/08 01:29:38;;;;;;;0.40;0.40;;;;;;;8.85;70.70;100139.13;5115742;28;20039;-61
2023/05/08 01:32:21;;;;;;;0.88;0.82;;;;;;;8.87;70.79;100143.41;5117443;28;20043;-61
2023/05/08 01:34:59;;;;;;;1.20;1.10;;;;;;;8.98;70.82;100146.94;5116815;28;20039;-61
2023/05/08 01:37:34;;;;;;;0.35;0.35;;;;;;;9.04;70.96;100141.06;5116822;28;20564;-61
2023/05/08 01:40:13;;;;;;;0.90;0.52;;;;;;;9.04;70.66;100143.63;5115893;28;20126;-61
2023/05/08 01:42:49;;;;;;;0.30;0.30;;;;;;;9.00;70.61;100155.44;5115078;28;20051;-60
2023/05/08 01:45:23;;;;;;;1.83;1.00;;;;;;;8.86;69.50;100154.41;5116919;28;20048;-61
2023/05/08 01:48:03;;;;;;;1.02;0.52;;;;;;;8.75;70.41;100150.88;5116604;27;20101;-61
2023/05/08 01:50:36;;;;;;;0.70;0.70;;;;;;;8.71;70.80;100156.72;5115373;28;20100;-61
2023/05/08 01:53:24;;;;;;;0.40;0.40;;;;;;;8.73;71.17;100163.53;5116511;28;20048;-61
2023/05/08 01:55:57;;;;;;;0.50;0.50;;;;;;;8.68;71.08;100156.69;5116450;28;20046;-61
2023/05/08 01:58:27;;;;;;;0.47;0.47;;;;;;;8.68;72.04;100156.69;5115229;28;20097;-61
2023/05/08 02:00:58;;;;;;;0.32;0.32;;;;;;;8.66;71.03;100148.19;5115771;28;20127;-61
2023/05/08 02:03:31;;;;;;;0.22;0.22;;;;;;;8.70;71.74;100155.03;5115453;28;20150;-60
2023/05/08 02:06:01;;;;;;;0.30;0.30;;;;;;;8.67;71.49;100154.97;5116268;28;20048;-62
2023/05/08 02:08:34;;;;;;;0.98;0.88;;;;;;;8.74;72.31;100151.69;5116314;28;20063;-61
2023/05/08 02:11:07;;;;;;;0.82;0.82;;;;;;;8.72;72.05;100155.91;5115994;28;20066;-61
2023/05/08 02:13:37;;;;;;;0.40;0.40;;;;;;;8.71;72.65;100156.72;5116444;28;20436;-61
2023/05/08 02:16:08;;;;;;;0.70;0.70;;;;;;;8.74;71.86;100156.78;5116373;28;20039;-61
2023/05/08 02:18:43;;;;;;;2.85;1.42;;;;;;;8.76;72.05;100162.72;5116330;28;20048;-61
2023/05/08 02:21:14;;;;;;;0.70;0.70;;;;;;;8.80;72.38;100161.09;5116083;28;20051;-61
2023/05/08 02:23:45;;;;;;;0.32;0.32;;;;;;;8.77;72.20;100161.91;5116213;28;20505;-61
2023/05/08 02:26:16;;;;;;;0.60;0.60;;;;;;;8.79;71.82;100160.25;5114715;28;20047;-61
2023/05/08 02:28:46;;;;;;;0.65;0.65;;;;;;;8.91;72.63;100155.31;5115899;28;20044;-60
2023/05/08 02:31:16;;;;;;;2.90;0.88;;;;;;;8.95;71.46;100156.22;5115847;28;20451;-61
2023/05/08 02:33:48;;;;;;;0.40;0.40;;;;;;;8.95;72.23;100157.06;5114628;28;20055;-61
2023/05/08 02:36:19;;;;;;;0.75;0.75;;;;;;;8.97;71.71;100164.75;5115607;28;20117;-61
2023/05/08 02:38:54;;;;;;;0.52;0.52;;;;;;;8.96;71.79;100158.78;5115853;28;20489;-61
2023/05/08 02:41:28;;;;;;;0.40;0.40;;;;;;;9.00;71.86;100164.78;5114460;28;20104;-60
2023/05/08 02:43:59;;;;;;;0.70;0.70;;;;;;;8.99;72.11;100168.16;5114641;28;20032;-61
2023/05/08 02:46:39;;;;;;;0.70;0.70;;;;;;;9.05;71.56;100173.31;5115423;28;20039;-61
2023/05/08 02:49:22;;;;;;;0.30;0.30;;;;;;;9.09;71.32;100173.41;5114230;28;20066;-61
2023/05/08 02:51:57;;;;;;;0.28;0.28;;;;;;;9.07;70.95;100169.94;5115686;28;20096;-61
2023/05/08 02:54:38;;;;;;;0.63;0.55;;;;;;;9.10;71.54;100179.31;5114496;28;20450;-61
2023/05/08 02:57:14;;;;;;;0.20;0.20;;;;;;;9.02;71.75;100178.38;5113934;28;20040;-61
2023/05/08 02:59:47;;;;;;;0.43;0.43;;;;;;;9.02;71.66;100178.38;5114080;28;20039;-61
2023/05/08 03:02:18;;;;;;;0.80;0.80;;;;;;;9.01;71.05;100172.44;5114253;28;20404;-61
2023/05/08 03:04:53;;;;;;;0.38;0.38;;;;;;;9.07;71.34;100184.41;5115397;28;20043;-61
2023/05/08 03:07:26;;;;;;;0.77;0.77;;;;;;;9.08;71.26;100175.91;5115060;27;20044;-61
2023/05/08 03:10:01;;;;;;;0.73;0.73;;;;;;;9.03;71.32;100173.31;5115093;28;20390;-62
2023/05/08 03:12:34;;;;;;;0.38;0.38;;;;;;;8.98;70.89;100177.47;5113834;28;20051;-61
2023/05/08 03:15:07;;;;;;;0.38;0.38;;;;;;;8.88;71.05;100170.53;5113982;28;20046;-61
2023/05/08 03:17:39;;;;;;;0.40;0.40;;;;;;;8.88;71.29;100170.53;5114824;28;20048;-61
2023/05/08 03:20:15;;;;;;;0.50;0.50;;;;;;;8.89;71.43;100177.34;5113954;28;20067;-60
2023/05/08 03:22:47;;;;;;;1.00;1.00;;;;;;;8.91;71.88;100178.22;5115070;28;20489;-61
2023/05/08 03:25:18;;;;;;;1.38;0.80;;;;;;;8.92;71.49;100176.53;5113600;28;20051;-60
2023/05/08 03:27:49;;;;;;;0.80;0.80;;;;;;;8.91;72.44;100178.22;5114706;28;20082;-61
2023/05/08 03:30:19;;;;;;;0.30;0.30;;;;;;;8.90;71.41;100179.03;5114656;28;20507;-60
2023/05/08 03:32:59;;;;;;;0.60;0.60;;;;;;;8.90;72.14;100178.22;5113425;28;20054;-61
2023/05/08 03:35:31;;;;;;;0.60;0.60;;;;;;;8.87;71.82;100179.03;5115041;28;20481;-60
2023/05/08 03:38:01;;;;;;;0.40;0.40;;;;;;;8.92;71.96;100185.03;5113337;28;20050;-61
2023/05/08 03:40:30;;;;;;;0.63;0.52;;;;;;;8.92;71.56;100182.50;5114500;28;20044;-61
2023/05/08 03:43:01;;;;;;;0.57;0.57;;;;;;;8.89;71.86;100182.44;5113212;28;20040;-61
2023/05/08 03:45:31;;;;;;;0.70;0.70;;;;;;;8.86;71.59;100181.53;5113304;28;20260;-61
2023/05/08 03:48:01;;;;;;;0.88;0.60;;;;;;;8.90;71.46;100179.03;5114647;28;20071;-61
2023/05/08 03:50:34;;;;;;;0.30;0.30;;;;;;;9.00;71.72;100185.16;5130634;27;20051;-62
2023/05/08 03:53:05;;;;;;;0.47;0.47;;;;;;;8.97;71.31;100185.09;5114276;28;20054;-62
2023/05/08 03:55:36;;;;;;;0.30;0.30;;;;;;;8.92;71.23;100185.03;5113289;28;20094;-61
2023/05/08 03:58:16;;;;;;;0.68;0.68;;;;;;;8.90;70.88;100184.13;5114473;28;20510;-61
2023/05/08 04:00:59;;;;;;;1.48;0.93;;;;;;;8.88;71.39;100185.81;5112968;28;20058;-60
2023/05/08 04:03:40;;;;;;;0.40;0.40;;;;;;;8.91;71.56;100185.00;5113274;28;20048;-61
2023/05/08 04:06:17;;;;;;;0.60;0.60;;;;;;;9.02;71.23;100188.56;5114310;28;20442;-60
2023/05/08 04:08:58;;;;;;;0.60;0.60;;;;;;;9.03;71.06;100195.34;5113285;28;20055;-61
2023/05/08 04:11:36;;;;;;;0.30;0.30;;;;;;;9.16;71.06;100202.34;5112638;28;20058;-61
2023/05/08 04:14:08;;;;;;;0.52;0.52;;;;;;;9.13;70.86;100203.16;5114607;28;20112;-61
2023/05/08 04:16:41;;;;;;;0.60;0.60;;;;;;;9.18;71.72;100201.53;5130206;28;20439;-61
2023/05/08 04:19:15;;;;;;;0.47;0.47;;;;;;;9.11;71.49;100204.81;5112831;28;20093;-61
2023/05/08 04:21:48;;;;;;;0.82;0.82;;;;;;;9.04;71.13;100208.13;5114322;28;20113;-61
2023/05/08 04:24:19;;;;;;;0.32;0.32;;;;;;;9.05;71.61;100214.03;5112747;28;20047;-61
2023/05/08 04:26:49;;;;;;;0.77;0.77;;;;;;;9.08;71.14;100207.31;5112784;28;20055;-61
2023/05/08 04:29:19;;;;;;;0.60;0.60;;;;;;;9.15;71.23;100216.75;5112599;28;20044;-61
2023/05/08 04:31:50;;;;;;;1.48;1.23;;;;;;;9.23;70.99;100220.28;5112721;28;20090;-61
2023/05/08 04:34:19;;;;;;;0.20;0.20;;;;;;;9.28;71.14;100221.19;5112677;28;20131;-61
2023/05/08 04:36:49;;;;;;;0.40;0.40;;;;;;;9.24;70.53;100227.06;5112815;28;20388;-61
2023/05/08 04:39:18;;;;;;;0.43;0.43;;;;;;;9.21;70.43;100227.00;5112582;28;20378;-61
2023/05/08 04:41:50;;;;;;;0.30;0.30;;;;;;;9.23;70.73;100230.47;5113157;28;20373;-61
2023/05/08 04:44:20;;;;;;;0.30;0.30;;;;;;;9.24;70.63;100227.06;5113773;28;20093;-61
2023/05/08 04:46:50;;;;;;;1.43;0.53;;;;;;;9.42;70.69;100234.94;5113730;28;20139;-61
2023/05/08 04:49:19;;;;;;;0.28;0.28;;;;;;;9.65;69.91;100230.13;5113614;28;20279;-61
2023/05/08 04:51:49;;;;;;;0.43;0.43;;;;;;;9.72;69.44;100236.13;5113895;28;20448;-61
2023/05/08 04:54:18;;;;;;;0.47;0.47;;;;;;;9.72;69.21;100236.13;5112472;28;20040;-61
2023/05/08 04:56:47;;;;;;;1.85;1.38;;;;;;;9.80;69.04;100239.63;5112454;28;20036;-61
2023/05/08 04:59:16;;;;;;;0.30;0.30;;;;;;;10.00;68.32;100245.81;5112626;28;20067;-61
2023/05/08 05:01:47;;;;;;;0.40;0.40;;;;;;;10.13;67.88;100237.47;5114718;28;20389;-61
2023/05/08 05:04:16;;;;;;;0.40;0.40;;;;;;;10.19;67.65;100245.19;5113868;28;20416;-61
2023/05/08 05:06:45;;;;;;;0.50;0.50;;;;;;;10.31;67.74;100250.41;5112303;28;20044;-61
2023/05/08 05:09:15;;;;;;;0.40;0.40;;;;;;;10.45;66.32;100253.09;5112313;28;20272;-61
2023/05/08 05:11:44;;;;;;;0.40;0.40;;;;;;;10.48;66.11;100251.44;5113861;28;20048;-61
2023/05/08 05:14:13;;;;;;;0.87;0.60;;;;;;;10.53;66.17;100259.13;5113142;28;20546;-61
2023/05/08 05:16:41;;;;;;;0.63;0.63;;;;;;;10.58;65.53;100260.03;5113669;28;20657;-61
2023/05/08 05:19:10;;;;;;;0.70;0.70;;;;;;;10.60;65.35;100248.13;5115533;28;20047;-61
2023/05/08 05:21:40;;;;;;;2.00;1.02;;;;;;;10.71;65.13;100257.56;5115875;28;20044;-62
2023/05/08 05:24:09;;;;;;;0.43;0.43;;;;;;;10.81;64.31;100258.50;5117057;28;20055;-61
2023/05/08 14:36:41;;;;;;;0.60;0.60;;;;;;;20.63;33.30;100100.34;5141524;27;1526605;-70
2023/05/08 14:39:10;;;;;;;0.47;0.47;;;;;;;20.67;33.31;100094.13;5173436;27;20500;-71
2023/05/08 14:41:39;;;;;;;1.00;0.90;;;;;;;20.74;33.43;100093.00;5173305;27;20050;-71
2023/05/08 14:44:08;;;;;;;0.50;0.50;;;;;;;20.94;33.89;100095.75;5173583;27;20518;-71
2023/05/08 14:46:37;;;;;;;0.45;0.45;;;;;;;20.96;33.89;100093.94;5173158;27;20121;-71
2023/05/08 14:49:06;;;;;;;0.60;0.60;;;;;;;20.85;33.41;100096.06;5155164;27;20045;-70
2023/05/08 14:51:35;;;;;;;0.50;0.50;;;;;;;20.64;33.68;100091.63;5173090;27;20514;-71
2023/05/08 14:54:05;;;;;;;0.52;0.52;;;;;;;20.77;33.98;100097.25;5173141;27;20035;-72
2023/05/08 14:56:34;;;;;;;6.32;0.98;;;;;;;20.87;33.96;100098.63;5170989;27;20046;-71
2023/05/08 14:59:14;;;;;;;0.50;0.50;;;;;;;20.84;33.86;100093.53;5173012;27;20046;-69
2023/05/08 15:01:43;;;;;;;0.50;0.50;;;;;;;20.94;34.01;100093.16;5173296;27;20129;-70
2023/05/08 15:04:12;;;;;;;0.50;0.50;;;;;;;20.99;33.78;100103.38;5172978;27;20122;-70
2023/05/08 15:06:41;;;;;;;0.40;0.40;;;;;;;20.97;33.74;100095.63;5172963;27;20091;-69
2023/05/08 15:09:12;;;;;;;0.40;0.40;;;;;;;20.84;33.87;100091.78;5172706;27;20499;-70
2023/05/08 15:11:41;;;;;;;0.80;0.60;;;;;;;20.71;33.93;100096.56;5172696;27;20135;-68
2023/05/08 15:14:10;;;;;;;0.65;0.65;;;;;;;20.62;34.41;100093.44;5172708;27;20046;-69
2023/05/08 15:16:39;;;;;;;0.40;0.40;;;;;;;20.53;34.67;100093.78;5154247;27;20106;-69
2023/05/08 15:19:08;;;;;;;0.32;0.32;;;;;;;20.53;34.62;100093.78;5172572;27;20122;-70
2023/05/08 15:21:37;;;;;;;1.75;0.73;;;;;;;20.53;34.62;100098.97;5172501;27;20042;-70
2023/05/08 15:24:07;;;;;;;0.43;0.43;;;;;;;20.63;35.40;100096.00;5172540;27;20048;-70
2023/05/08 15:26:37;;;;;;;0.57;0.57;;;;;;;20.61;35.32;100097.78;5172720;27;20045;-70
2023/05/08 15:29:06;;;;;;;0.50;0.50;;;;;;;20.44;35.40;100091.50;5172420;27;20053;-70
2023/05/08 15:31:35;;;;;;;0.40;0.40;;;;;;;20.50;35.01;100096.47;5172410;27;20045;-70
2023/05/08 15:34:04;;;;;;;0.47;0.47;;;;;;;20.48;35.40;100098.25;5172017;27;20423;-71
2023/05/08 15:36:34;;;;;;;0.50;0.50;;;;;;;20.51;36.08;100103.34;5171888;27;20380;-70
2023/05/08 15:39:03;;;;;;;0.55;0.55;;;;;;;20.46;36.44;100097.47;5172057;27;20110;-70
2023/05/08 15:41:33;;;;;;;0.80;0.80;;;;;;;20.39;36.42;100101.19;5172831;27;20038;-70
2023/05/08 15:44:03;;;;;;;0.88;0.80;;;;;;;20.10;36.64;100101.25;5172375;27;20035;-70
2023/05/08 15:46:32;;;;;;;0.50;0.50;;;;;;;20.08;36.73;100096.97;5167095;27;20035;-71
2023/05/08 15:49:01;;;;;;;0.45;0.45;;;;;;;20.21;36.69;100093.97;5158257;27;20035;-71
2023/05/08 15:51:31;;;;;;;0.50;0.50;;;;;;;20.19;36.53;100095.78;5158107;27;20047;-70
2023/05/08 15:54:00;;;;;;;0.65;0.65;;;;;;;20.20;36.83;100095.75;5158104;27;20049;-71
2023/05/08 15:56:28;;;;;;;0.60;0.60;;;;;;;20.11;36.81;100096.03;5139509;27;20043;-70
2023/05/08 15:58:57;;;;;;;0.40;0.40;;;;;;;19.88;37.39;100089.00;5157938;27;20034;-70
2023/05/08 16:01:27;;;;;;;0.50;0.50;;;;;;;19.82;37.73;100096.97;5157966;27;20088;-71
2023/05/08 16:03:57;;;;;;;0.88;0.88;;;;;;;19.96;38.08;100087.00;5158192;27;20039;-71
2023/05/08 16:06:26;;;;;;;0.52;0.52;;;;;;;19.92;37.73;100090.59;5158158;27;20045;-70
2023/05/08 16:08:55;;;;;;;0.90;0.90;;;;;;;19.72;37.31;100087.81;5158032;27;20049;-70
2023/05/08 16:11:23;;;;;;;0.53;0.53;;;;;;;19.62;37.70;100088.97;5157860;27;20034;-71
2023/05/08 16:13:52;;;;;;;0.83;0.67;;;;;;;19.62;37.74;100083.81;5139560;27;20270;-70
2023/05/08 16:16:22;;;;;;;0.60;0.60;;;;;;;19.58;37.98;100084.75;5139362;27;20492;-70
2023/05/08 16:18:52;;;;;;;0.98;0.88;;;;;;;19.47;38.01;100102.38;5157547;27;20049;-70
2023/05/08 16:21:25;;;;;;;0.40;0.40;;;;;;;19.35;38.55;100102.72;5157629;27;20055;-71
2023/05/08 16:23:55;;;;;;;0.68;0.68;;;;;;;19.08;38.81;100103.50;5157546;27;20551;-71
2023/05/08 16:26:25;;;;;;;2.22;0.90;;;;;;;18.87;38.05;100107.56;5157382;27;20048;-71
2023/05/08 16:28:53;;;;;;;0.53;0.53;;;;;;;18.70;37.24;100110.59;5139267;27;20548;-69
2023/05/08 16:31:22;;;;;;;0.60;0.60;;;;;;;18.57;37.32;100109.22;5157690;27;20274;-70
2023/05/08 16:33:53;;;;;;;0.43;0.43;;;;;;;18.61;37.64;100118.63;5158092;27;20307;-70
2023/05/08 16:36:21;;;;;;;2.17;1.20;;;;;;;18.55;37.47;100123.94;5156925;27;20057;-68
2023/05/08 16:38:50;;;;;;;1.87;1.40;;;;;;;18.31;37.17;100119.34;5157517;27;20111;-69
2023/05/08 16:41:20;;;;;;;0.40;0.40;;;;;;;18.15;37.30;100123.22;5157474;27;20060;-71
2023/05/08 16:43:49;;;;;;;0.75;0.75;;;;;;;18.22;37.28;100129.06;5157213;27;20580;-71
2023/05/08 16:46:18;;;;;;;0.73;0.73;;;;;;;18.16;37.11;100135.25;5157405;27;20030;-70
2023/05/08 16:49:00;;;;;;;0.47;0.47;;;;;;;18.05;36.81;100137.22;5157135;27;20090;-71
2023/05/08 16:51:29;;;;;;;0.77;0.77;;;;;;;18.00;37.05;100149.41;5157281;27;20087;-72
2023/05/08 16:53:58;;;;;;;0.50;0.50;;;;;;;17.82;37.59;100162.75;5156987;27;20050;-71
2023/05/08 16:56:27;;;;;;;0.70;0.70;;;;;;;17.59;38.19;100168.41;5156707;27;20096;-70
2023/05/08 16:58:56;;;;;;;0.73;0.70;;;;;;;17.50;38.15;100170.28;5155807;27;20099;-69
2023/05/08 17:01:25;;;;;;;0.77;0.77;;;;;;;17.30;38.70;100176.72;5156795;27;20118;-71
2023/05/08 17:03:53;;;;;;;0.40;0.40;;;;;;;17.27;38.85;100181.97;5156747;27;20049;-71
2023/05/08 17:06:24;;;;;;;0.40;0.40;;;;;;;17.16;38.84;100189.03;5156975;27;20650;-67
2023/05/08 17:08:53;;;;;;;0.55;0.55;;;;;;;17.13;39.10;100189.09;5156611;27;20049;-69
2023/05/08 17:11:22;;;;;;;1.27;1.17;;;;;;;16.99;38.83;100185.09;5156645;27;20038;-71
2023/05/08 17:13:50;;;;;;;0.57;0.57;;;;;;;16.80;39.38;100200.03;5156616;27;20035;-71
2023/05/08 17:16:19;;;;;;;0.50;0.50;;;;;;;16.77;39.47;100202.69;5156663;27;20035;-71
2023/05/08 17:18:48;;;;;;;1.83;0.90;;;;;;;16.66;39.69;100207.16;5156658;27;20759;-70
2023/05/08 17:21:17;;;;;;;0.85;0.80;;;;;;;16.59;39.53;100209.00;5156311;27;20042;-71
2023/05/08 17:23:48;;;;;;;3.45;1.52;;;;;;;16.42;40.03;100202.38;5156505;27;20046;-71
2023/05/08 17:26:16;;;;;;;0.60;0.60;;;;;;;16.35;40.25;100216.22;5156269;27;20099;-70
2023/05/08 17:28:45;;;;;;;0.93;0.93;;;;;;;16.18;39.98;100218.19;5156605;27;20035;-71
2023/05/08 17:31:14;;;;;;;1.08;0.98;;;;;;;15.97;40.11;100209.94;5156166;27;20042;-71
2023/05/08 17:33:43;;;;;;;1.03;0.97;;;;;;;15.98;40.63;100221.91;5156078;27;20042;-72
2023/05/08 17:36:12;;;;;;;0.67;0.67;;;;;;;16.00;40.60;100224.50;5155714;27;20042;-69
2023/05/08 17:38:44;;;;;;;0.57;0.57;;;;;;;15.88;41.07;100230.63;5156018;27;20053;-69
2023/05/08 17:41:15;;;;;;;0.82;0.82;;;;;;;15.75;41.31;100234.25;5156022;27;20074;-72
2023/05/08 17:43:44;;;;;;;0.57;0.57;;;;;;;15.68;41.32;100244.63;5156205;27;20046;-71
2023/05/08 17:46:13;;;;;;;0.45;0.45;;;;;;;15.62;41.36;100250.69;5155870;27;20399;-71
2023/05/08 17:48:42;;;;;;;0.60;0.60;;;;;;;15.50;42.02;100253.41;5156020;27;20433;-71
2023/05/08 17:51:12;;;;;;;0.93;0.90;;;;;;;15.40;42.55;100267.25;5156135;27;20110;-71
2023/05/08 17:53:41;;;;;;;2.03;1.85;;;;;;;15.30;42.78;100265.63;5155747;27;20051;-71
2023/05/08 17:56:10;;;;;;;0.70;0.70;;;;;;;15.29;42.82;100274.19;5155958;27;20046;-71
2023/05/08 17:58:40;;;;;;;0.77;0.73;;;;;;;15.28;42.77;100278.50;5155637;27;20039;-71
2023/05/08 18:01:09;;;;;;;0.65;0.65;;;;;;;15.20;42.70;100274.31;5155610;27;20047;-70
2023/05/08 18:03:38;;;;;;;0.85;0.82;;;;;;;15.12;42.81;100281.22;5155719;27;20043;-70
2023/05/08 18:06:07;;;;;;;0.77;0.70;;;;;;;15.04;42.92;100288.19;5156023;27;20433;-71
2023/05/08 18:08:36;;;;;;;1.50;0.95;;;;;;;15.06;43.57;100296.72;5155866;27;20279;-71
2023/05/08 18:11:16;;;;;;;1.17;1.13;;;;;;;14.98;43.10;100298.50;5155532;27;20042;-71
2023/05/08 18:13:47;;;;;;;0.98;0.90;;;;;;;14.93;43.57;100305.41;5155792;27;20062;-70
2023/05/08 18:16:17;;;;;;;0.60;0.60;;;;;;;14.87;43.55;100305.47;5155702;27;20055;-71
2023/05/08 18:18:46;;;;;;;1.60;1.00;;;;;;;14.77;44.11;100309.81;5155473;27;20488;-70
2023/05/08 18:21:15;;;;;;;0.75;0.75;;;;;;;14.72;44.08;100302.16;5155614;27;20067;-71
2023/05/08 18:23:44;;;;;;;0.50;0.50;;;;;;;14.69;44.40;100311.59;5137122;27;20535;-71
2023/05/08 18:26:14;;;;;;;0.93;0.85;;;;;;;14.56;44.55;100315.13;5155302;27;20042;-70
2023/05/08 18:28:44;;;;;;;1.00;0.90;;;;;;;14.51;44.52;100322.84;5155217;27;20039;-70
2023/05/08 18:31:15;;;;;;;0.85;0.85;;;;;;;14.40;44.90;100314.34;5155139;27;20039;-69
2023/05/08 18:33:44;;;;;;;0.68;0.68;;;;;;;14.29;45.21;100321.25;5156199;27;20042;-71
2023/05/08 18:36:13;;;;;;;0.38;0.38;;;;;;;14.22;45.10;100319.56;5154894;27;20050;-71
2023/05/08 18:38:42;;;;;;;0.50;0.50;;;;;;;14.19;45.67;100322.13;5155099;27;20125;-71
2023/05/08 18:41:11;;;;;;;0.70;0.70;;;;;;;14.07;45.88;100320.50;5155459;27;20039;-71
2023/05/08 18:43:40;;;;;;;0.50;0.50;;;;;;;13.98;45.99;100329.94;5155188;27;20039;-68
2023/05/08 18:46:10;;;;;;;0.80;0.80;;;;;;;13.79;46.45;100328.31;5155382;27;20138;-70
2023/05/08 18:48:41;;;;;;;1.55;1.13;;;;;;;13.73;46.61;100336.00;5155008;27;20047;-70
2023/05/08 18:51:10;;;;;;;0.70;0.70;;;;;;;13.64;46.61;100328.34;5155137;27;20050;-72
2023/05/08 18:53:39;;;;;;;0.85;0.70;;;;;;;13.67;46.88;100333.47;5155470;27;20066;-70
2023/05/08 18:56:10;;;;;;;0.77;0.77;;;;;;;13.67;46.85;100341.19;5136746;27;20043;-72
2023/05/08 18:58:39;;;;;;;1.00;0.95;;;;;;;13.63;46.78;100342.06;5154883;27;20050;-71
2023/05/08 19:01:08;;;;;;;1.10;0.80;;;;;;;13.60;46.92;100352.31;5154962;27;20049;-68
2023/05/08 19:03:37;;;;;;;0.70;0.70;;;;;;;13.51;46.90;100358.28;5136574;27;20499;-70
2023/05/08 19:06:07;;;;;;;0.60;0.60;;;;;;;13.44;47.29;100359.16;5136446;27;20283;-69
2023/05/08 19:08:36;;;;;;;0.52;0.52;;;;;;;13.40;47.29;100371.16;5155253;27;20273;-69
2023/05/08 19:11:05;;;;;;;1.10;1.00;;;;;;;13.43;47.13;100375.41;5154882;27;20042;-70
2023/05/08 19:13:34;;;;;;;0.57;0.57;;;;;;;13.41;47.17;100377.97;5154812;27;20047;-70
2023/05/08 19:16:03;;;;;;;0.50;0.50;;;;;;;13.34;47.00;100375.44;5136605;27;20043;-71
2023/05/08 19:18:32;;;;;;;1.03;0.70;;;;;;;13.26;47.04;100388.25;5154830;27;20097;-71
2023/05/08 19:21:01;;;;;;;1.15;1.05;;;;;;;13.15;47.33;100369.44;5154730;27;20283;-70
2023/05/08 19:23:32;;;;;;;0.90;0.90;;;;;;;13.18;47.34;100378.84;5158444;27;20050;-70
2023/05/08 19:26:01;;;;;;;0.70;0.70;;;;;;;13.10;47.59;100380.56;5158665;27;20047;-72
2023/05/08 19:28:29;;;;;;;0.70;0.70;;;;;;;12.99;47.62;100388.22;5159636;27;20434;-70
2023/05/08 19:30:59;;;;;;;1.00;0.95;;;;;;;12.93;47.95;100385.66;5123277;27;20270;-71
2023/05/08 19:33:27;;;;;;;0.98;0.90;;;;;;;12.88;48.04;100389.06;5158438;27;20492;-72
2023/05/08 19:35:56;;;;;;;0.40;0.40;;;;;;;12.83;48.27;100386.50;5158215;27;20046;-70
2023/05/08 19:38:25;;;;;;;0.43;0.43;;;;;;;12.87;47.68;100392.44;5158433;27;20038;-70
2023/05/08 19:40:57;;;;;;;0.75;0.55;;;;;;;12.86;48.42;100386.47;5158693;27;20050;-72
2023/05/08 19:43:26;;;;;;;0.47;0.47;;;;;;;12.79;48.68;100392.44;5158337;27;20106;-70
2023/05/08 19:45:55;;;;;;;1.13;1.02;;;;;;;12.73;48.64;100395.00;5158304;27;20046;-71
2023/05/08 19:48:24;;;;;;;1.38;1.02;;;;;;;12.72;48.96;100393.28;5158828;27;20046;-70
2023/05/08 19:50:54;;;;;;;0.40;0.40;;;;;;;12.78;49.02;100383.91;5158230;27;20047;-71
2023/05/08 19:53:23;;;;;;;0.98;0.95;;;;;;;12.76;48.75;100389.91;5158499;27;20144;-71
2023/05/08 19:55:52;;;;;;;0.63;0.63;;;;;;;12.75;49.26;100393.28;5158499;27;20488;-71
2023/05/08 19:58:23;;;;;;;0.50;0.50;;;;;;;12.78;49.40;100403.56;5158416;27;20539;-71
2023/05/08 20:00:52;;;;;;;0.40;0.40;;;;;;;12.77;49.99;100394.16;5158290;27;20455;-70
2023/05/08 20:03:21;;;;;;;0.67;0.67;;;;;;;12.76;50.48;100405.25;5139617;27;20058;-70
2023/05/08 20:05:51;;;;;;;1.95;1.63;;;;;;;12.70;50.82;100405.22;5157982;27;20081;-70
2023/05/08 20:08:20;;;;;;;0.95;0.95;;;;;;;12.63;51.21;100390.72;5157819;27;20038;-71
2023/05/08 20:10:48;;;;;;;0.40;0.40;;;;;;;12.64;50.88;100405.22;5158176;27;20066;-71
2023/05/08 20:13:22;;;;;;;1.65;1.23;;;;;;;12.56;50.88;100397.53;5158717;27;20396;-70
2023/05/08 20:15:52;;;;;;;0.57;0.57;;;;;;;12.52;51.04;100400.06;5157708;27;20047;-70
2023/05/08 20:18:21;;;;;;;0.40;0.40;;;;;;;12.46;50.96;100397.47;5157709;27;20070;-70
2023/05/08 20:20:50;;;;;;;0.65;0.65;;;;;;;12.48;51.33;100403.47;5157602;27;20095;-70
2023/05/08 20:23:19;;;;;;;0.75;0.75;;;;;;;12.40;51.14;100400.03;5157548;27;20088;-70
2023/05/08 20:25:48;;;;;;;1.15;1.05;;;;;;;12.38;51.00;100397.44;5157837;27;20060;-70
2023/05/08 20:28:21;;;;;;;0.50;0.50;;;;;;;12.44;51.06;100406.88;5157801;27;20146;-70
2023/05/08 20:30:52;;;;;;;0.50;0.50;;;;;;;12.39;51.48;100403.44;5157759;27;20499;-70
2023/05/08 20:33:21;;;;;;;1.20;1.10;;;;;;;12.31;51.46;100405.13;5157313;27;20137;-70
2023/05/08 20:35:50;;;;;;;0.70;0.70;;;;;;;12.24;51.51;100405.97;5157307;27;20057;-70
2023/05/08 20:38:19;;;;;;;0.63;0.63;;;;;;;12.17;51.63;100406.75;5157186;27;20107;-70
2023/05/08 20:40:48;;;;;;;0.50;0.50;;;;;;;12.08;51.63;100413.56;5157222;27;20067;-70
2023/05/08 20:43:18;;;;;;;2.50;0.77;;;;;;;12.08;51.84;100417.81;5157543;27;20039;-70
2023/05/08 20:45:47;;;;;;;1.02;1.00;;;;;;;12.10;51.97;100416.97;5157402;27;20452;-70
2023/05/08 20:48:18;;;;;;;1.10;0.98;;;;;;;12.10;52.09;100416.97;5157226;27;20035;-70
2023/05/08 20:50:48;;;;;;;0.82;0.80;;;;;;;12.07;51.92;100411.81;5157400;27;20551;-70
2023/05/08 20:53:17;;;;;;;0.60;0.60;;;;;;;12.05;51.99;100408.41;5138628;27;20039;-70
2023/05/08 20:55:46;;;;;;;0.55;0.50;;;;;;;12.00;52.08;100420.31;5157737;27;20488;-70